.
WxDataArchive / Data Records for 2010-08-14
2010-08-13 August 2010 2010-08-15

Data Records for Saturday, 14 August 2010

Time	Temp	Chill	HIndex	Humid	Dewpt	 Wind 	HiWind	WindDir	Rain 	Barom 
-----	----	-----	------	-----	-----	------	------	-------	-----	----- 
00:00	75.3	75.3	75.1	87	71.2	0	0	---	0.00	29.800 
00:05	75.1	75.1	74.7	87	71.0	0	0	---	0.00	29.800 
00:10	75.1	75.1	74.7	87	71.0	0	0	---	0.00	29.800 
00:15	74.9	74.9	74.9	87	70.8	0	0	---	0.00	29.800 
00:20	74.7	74.7	74.7	87	70.6	0	0	---	0.00	29.800 
00:25	74.7	74.7	74.7	87	70.6	0	0	---	0.00	29.800 
00:30	74.6	74.6	74.6	88	70.8	0	0	---	0.00	29.805 
00:35	74.6	74.6	74.6	88	70.8	0	0	---	0.00	29.805 
00:40	74.4	74.4	74.4	88	70.6	0	0	---	0.00	29.805 
00:45	74.4	74.4	74.4	88	70.6	0	0	---	0.00	29.806 
00:50	74.2	74.2	74.2	88	70.4	0	0	---	0.00	29.806 
00:55	74.2	74.2	74.2	88	70.4	0	0	---	0.00	29.806 
01:00	74.0	74.0	74.0	88	70.2	0	0	---	0.00	29.807 
01:05	73.9	73.9	73.9	89	70.4	0	0	---	0.00	29.807 
01:10	73.9	73.9	73.9	88	70.1	0	0	---	0.00	29.807 
01:15	73.9	73.9	73.9	89	70.4	0	0	---	0.00	29.805 
01:20	73.9	73.9	73.9	89	70.4	0	0	---	0.00	29.805 
01:25	74.0	74.0	74.0	89	70.5	0	0	---	0.00	29.805 
01:30	74.0	74.0	74.0	89	70.5	0	0	---	0.00	29.802 
01:35	74.0	74.0	74.0	89	70.5	0	0	---	0.00	29.802 
01:40	74.0	74.0	74.0	89	70.5	0	0	---	0.00	29.802 
01:45	74.0	74.0	74.0	89	70.5	0	0	---	0.00	29.798 
01:50	73.9	73.9	73.9	88	70.1	0	0	---	0.00	29.798 
01:55	73.9	73.9	73.9	89	70.4	0	0	---	0.00	29.798 
02:00	73.7	73.7	73.7	89	70.2	0	0	---	0.00	29.795 
02:05	73.7	73.7	73.7	89	70.2	0	0	---	0.00	29.795 
02:10	73.5	73.5	73.5	89	70.0	0	0	---	0.00	29.795 
02:15	73.5	73.5	73.5	90	70.4	0	0	---	0.00	29.792 
02:20	73.3	73.3	73.3	90	70.2	0	0	---	0.00	29.792 
02:25	73.3	73.3	73.3	90	70.2	0	0	---	0.00	29.792 
02:30	73.3	73.3	73.3	90	70.2	0	0	---	0.00	29.793 
02:35	73.3	73.3	73.3	90	70.2	0	0	---	0.00	29.793 
02:40	73.3	73.3	73.3	91	70.5	0	0	---	0.00	29.793 
02:45	73.5	73.5	73.5	91	70.7	0	0	---	0.00	29.782 
02:50	73.5	73.5	73.5	90	70.4	0	0	---	0.00	29.782 
02:55	73.5	73.5	73.5	90	70.4	0	0	---	0.00	29.782 
03:00	73.5	73.5	73.5	90	70.4	0	0	---	0.00	29.779 
03:05	73.3	73.3	73.3	90	70.2	0	1	112	0.00	29.779 
03:10	73.3	73.3	73.3	90	70.2	0	0	---	0.00	29.779 
03:15	73.3	73.3	73.3	90	70.2	0	0	---	0.00	29.773 
03:20	73.3	73.3	73.3	90	70.2	0	0	---	0.00	29.773 
03:25	73.2	73.2	73.2	90	70.1	0	0	---	0.00	29.773 
03:30	73.2	73.2	73.2	89	69.8	0	0	---	0.00	29.776 
03:35	73.2	73.2	73.2	89	69.8	0	0	---	0.00	29.776 
03:40	73.2	73.2	73.2	89	69.8	0	1	112	0.00	29.776 
03:45	73.3	73.3	73.3	89	69.9	0	1	112	0.00	29.775 
03:50	73.3	73.3	73.3	89	69.9	0	0	---	0.00	29.775 
03:55	73.5	73.5	73.5	89	70.0	0	1	112	0.00	29.775 
04:00	73.7	73.7	73.7	88	69.9	0	1	112	0.00	29.776 
04:05	73.9	73.9	73.9	88	70.1	0	0	---	0.00	29.776 
04:10	73.9	73.9	73.9	88	70.1	0	0	---	0.00	29.776 
04:15	73.9	73.9	73.9	88	70.1	0	0	---	0.00	29.780 
04:20	73.9	73.9	73.9	88	70.1	0	0	---	0.00	29.780 
04:25	73.9	73.9	73.9	88	70.1	0	0	---	0.00	29.780 
04:30	73.9	73.9	73.9	88	70.1	0	0	---	0.00	29.780 
04:35	73.7	73.7	73.7	88	69.9	0	0	---	0.00	29.780 
04:40	73.5	73.5	73.5	88	69.7	0	0	---	0.00	29.780 
04:45	73.3	73.3	73.3	88	69.5	0	0	---	0.00	29.784 
04:50	73.2	73.2	73.2	88	69.4	0	0	---	0.00	29.784 
04:55	73.0	73.0	73.0	89	69.6	0	0	---	0.00	29.784 
05:00	72.8	72.8	72.8	89	69.4	0	0	---	0.00	29.793 
05:05	72.8	72.8	72.8	89	69.4	0	0	---	0.00	29.793 
05:10	72.7	72.7	72.7	90	69.6	0	0	---	0.00	29.793 
05:15	72.5	72.5	72.5	90	69.4	0	0	---	0.00	29.794 
05:20	72.7	72.7	72.7	91	69.9	0	0	---	0.00	29.794 
05:25	72.7	72.7	72.7	91	69.9	0	0	---	0.00	29.794 
05:30	72.8	72.8	72.8	91	70.0	0	0	---	0.00	29.793 
05:35	72.8	72.8	72.8	91	70.0	0	0	---	0.00	29.793 
05:40	73.0	73.0	73.0	91	70.2	0	0	---	0.00	29.793 
05:45	73.0	73.0	73.0	91	70.2	0	1	112	0.00	29.783 
05:50	73.0	73.0	73.0	91	70.2	0	0	---	0.00	29.783 
05:55	73.0	73.0	73.0	91	70.2	0	0	---	0.00	29.783 
06:00	73.0	73.0	73.0	91	70.2	0	0	---	0.00	29.787 
06:05	73.2	73.2	73.2	91	70.4	0	0	---	0.00	29.787 
06:10	73.2	73.2	73.2	91	70.4	0	0	---	0.00	29.787 
06:15	73.2	73.2	73.2	91	70.4	0	0	---	0.00	29.796 
06:20	73.2	73.2	73.2	91	70.4	0	0	---	0.00	29.796 
06:25	73.3	73.3	73.3	91	70.5	0	0	---	0.00	29.796 
06:30	73.3	73.3	73.3	91	70.5	0	0	---	0.00	29.796 
06:35	73.3	73.3	73.3	91	70.5	0	0	---	0.00	29.796 
06:40	73.3	73.3	73.3	91	70.5	0	0	---	0.00	29.796 
06:45	73.5	73.5	73.5	91	70.7	0	0	---	0.00	29.814 
06:50	73.5	73.5	73.5	91	70.7	0	0	---	0.00	29.814 
06:55	73.5	73.5	73.5	91	70.7	0	0	---	0.00	29.814 
07:00	73.5	73.5	73.5	91	70.7	0	0	---	0.00	29.813 
07:05	73.7	73.7	73.7	91	70.9	0	0	---	0.00	29.813 
07:10	73.9	73.9	73.9	91	71.1	0	0	---	0.00	29.813 
07:15	73.9	73.9	73.9	91	71.1	0	0	---	0.00	29.821 
07:20	74.0	74.0	74.0	91	71.2	0	0	---	0.00	29.821 
07:25	74.2	74.2	74.2	91	71.4	0	0	---	0.00	29.821 
07:30	74.2	74.2	74.2	90	71.1	0	0	---	0.00	29.826 
07:35	74.4	74.4	74.4	90	71.3	0	1	112	0.00	29.826 
07:40	74.6	74.6	74.6	90	71.5	0	1	112	0.00	29.826 
07:45	74.7	74.7	74.7	90	71.6	0	1	112	0.00	29.826 
07:50	74.9	74.9	74.9	90	71.8	0	2	112	0.00	29.826 
07:55	75.1	75.1	74.4	89	71.6	0	1	112	0.00	29.826 
08:00	75.3	75.3	74.8	89	71.8	0	0	---	0.00	29.826 
08:05	75.4	75.4	75.0	89	71.9	0	1	112	0.00	29.826 
08:10	75.6	75.6	75.5	88	71.8	0	1	112	0.00	29.826 
08:15	76.0	76.0	76.3	88	72.2	0	1	112	0.00	29.829 
08:20	76.1	76.1	76.5	88	72.3	0	1	112	0.00	29.829 
08:25	76.3	76.3	76.9	87	72.1	0	1	112	0.00	29.829 
08:30	76.3	76.3	76.9	87	72.1	0	0	---	0.00	29.828 
08:35	76.5	76.5	77.3	87	72.3	0	1	112	0.00	29.828 
08:40	76.8	76.8	77.9	87	72.6	0	1	112	0.00	29.828 
08:45	77.2	77.2	78.8	86	72.7	0	1	112	0.00	29.827 
08:50	77.4	77.4	79.2	85	72.5	0	1	112	0.00	29.827 
08:55	77.7	77.7	79.8	85	72.8	0	1	112	0.00	29.827 
09:00	77.7	77.7	79.8	84	72.5	0	1	112	0.00	29.827 
09:05	77.9	77.9	80.2	83	72.3	0	0	---	0.00	29.827 
09:10	78.1	78.1	80.6	83	72.5	0	1	112	0.00	29.827 
09:15	78.1	78.1	80.6	83	72.5	0	1	158	0.00	29.834 
09:20	77.9	77.9	80.2	82	71.9	1	2	270	0.00	29.834 
09:25	77.7	77.7	79.8	83	72.1	0	2	270	0.00	29.834 
09:30	77.7	77.7	79.8	83	72.1	0	1	270	0.00	29.833 
09:35	77.7	77.7	79.8	84	72.5	0	1	270	0.00	29.833 
09:40	77.7	77.7	79.8	83	72.1	0	1	270	0.00	29.833 
09:45	77.7	77.7	79.8	83	72.1	0	1	270	0.00	29.829 
09:50	77.7	77.7	79.8	83	72.1	0	1	270	0.00	29.829 
09:55	77.9	77.9	80.2	84	72.7	0	1	270	0.00	29.829 
10:00	78.1	78.1	80.6	83	72.5	0	1	270	0.00	29.829 
10:05	78.1	78.1	80.6	83	72.5	0	2	270	0.00	29.829 
10:10	78.1	78.1	80.6	83	72.5	0	1	270	0.00	29.829 
10:15	77.9	77.9	80.2	83	72.3	0	1	270	0.00	29.839 
10:20	77.7	77.7	79.8	83	72.1	0	1	270	0.00	29.839 
10:25	77.7	77.7	79.8	83	72.1	0	2	270	0.00	29.839 
10:30	77.4	77.4	79.2	83	71.8	0	2	270	0.00	29.842 
10:35	77.4	77.4	79.2	84	72.2	0	2	270	0.00	29.842 
10:40	77.4	77.4	79.2	84	72.2	0	0	---	0.00	29.842 
10:45	77.4	77.4	79.2	85	72.5	0	0	---	0.00	29.834 
10:50	77.6	77.6	79.6	85	72.7	0	1	270	0.00	29.834 
10:55	77.7	77.7	79.8	84	72.5	0	1	270	0.00	29.834 
11:00	78.1	78.1	80.6	84	72.9	0	1	270	0.00	29.840 
11:05	78.3	78.3	81.0	83	72.7	0	3	270	0.00	29.840 
11:10	78.3	78.3	80.9	82	72.3	1	4	270	0.00	29.840 
11:15	78.3	78.3	81.0	83	72.7	1	3	270	0.00	29.864 
11:20	77.7	77.7	79.8	84	72.5	1	3	270	0.00	29.864 
11:25	77.2	77.2	78.8	86	72.7	0	2	270	0.00	29.864 
11:30	76.8	76.8	77.9	87	72.6	0	2	270	0.00	29.863 
11:35	76.7	76.7	77.7	88	72.9	0	1	270	0.01	29.863 
11:40	76.5	76.5	77.2	89	73.0	0	0	---	0.02	29.863 
11:45	76.1	76.1	76.5	88	72.3	0	1	270	0.01	29.856 
11:50	76.1	76.1	76.4	89	72.6	0	2	270	0.00	29.856 
11:55	76.3	76.3	76.7	90	73.1	0	1	270	0.00	29.856 
12:00	76.5	76.5	77.0	91	73.7	0	0	---	0.00	29.858 
12:05	76.5	76.5	77.0	91	73.7	0	2	270	0.00	29.858 
12:10	76.3	76.3	76.6	91	73.5	0	1	270	0.00	29.858 
12:15	76.5	76.5	77.0	91	73.7	0	0	---	0.00	29.864 
12:20	76.5	76.5	77.0	91	73.7	0	1	270	0.00	29.864 
12:25	76.7	76.7	77.4	92	74.2	0	0	---	0.00	29.864 
12:30	76.8	76.8	77.6	92	74.3	0	0	---	0.00	29.863 
12:35	77.0	77.0	78.1	92	74.5	0	1	270	0.00	29.863 
12:40	77.2	77.2	78.6	92	74.7	0	1	270	0.00	29.863 
12:45	77.4	77.4	79.1	91	74.6	0	1	270	0.00	29.863 
12:50	77.7	77.7	79.8	90	74.5	0	1	270	0.00	29.863 
12:55	78.3	78.3	81.2	89	74.8	0	2	90	0.00	29.863 
13:00	79.0	79.0	82.7	87	74.8	0	1	90	0.00	29.861 
13:05	79.4	79.4	83.5	85	74.5	1	2	315	0.00	29.861 
13:10	79.6	79.6	83.5	81	73.2	1	3	248	0.00	29.861 
13:15	79.8	79.8	83.7	79	72.7	1	3	292	0.00	29.856 
13:20	80.3	80.3	84.6	78	72.8	0	2	292	0.00	29.856 
13:25	81.1	81.1	86.3	78	73.6	0	2	68	0.00	29.856 
13:30	81.4	81.4	86.3	75	72.7	1	2	68	0.00	29.853 
13:35	81.6	81.6	86.7	75	72.9	0	1	22	0.00	29.853 
13:40	82.0	82.0	87.6	75	73.3	0	2	22	0.00	29.853 
13:45	82.2	82.2	87.5	73	72.7	1	2	22	0.00	29.845 
13:50	82.4	82.4	88.2	74	73.3	0	2	45	0.00	29.845 
13:55	82.4	82.4	87.9	73	72.9	0	2	45	0.00	29.845 
14:00	82.4	82.4	87.7	72	72.4	0	2	0	0.00	29.846 
14:05	82.4	82.4	87.9	73	72.9	0	2	0	0.00	29.846 
14:10	82.6	82.6	88.1	72	72.6	0	1	0	0.00	29.846 
14:15	82.8	82.8	88.0	70	72.0	0	2	0	0.00	29.837 
14:20	83.2	83.2	88.8	70	72.4	0	1	0	0.00	29.837 
14:25	83.4	83.4	89.8	72	73.4	1	4	0	0.00	29.837 
14:30	83.8	83.8	90.0	70	72.9	0	2	22	0.00	29.833 
14:35	83.8	83.8	89.7	69	72.5	0	3	270	0.00	29.833 
14:40	84.0	84.0	89.8	68	72.3	0	1	248	0.00	29.833 
14:45	84.3	84.3	90.1	67	72.1	0	2	248	0.00	29.835 
14:50	84.5	84.5	89.9	65	71.4	1	3	248	0.00	29.835 
14:55	84.3	84.3	89.2	64	70.8	0	2	248	0.00	29.835 
15:00	84.3	84.3	89.2	64	70.8	0	2	248	0.00	29.836 
15:05	84.3	84.3	89.5	65	71.2	0	1	248	0.00	29.836 
15:10	84.5	84.5	89.9	65	71.4	0	2	248	0.00	29.836 
15:15	84.7	84.7	90.0	64	71.1	0	3	248	0.00	29.837 
15:20	85.1	85.1	90.4	63	71.1	0	2	248	0.00	29.837 
15:25	85.7	85.7	91.2	62	71.1	0	2	248	0.00	29.837 
15:30	86.1	86.1	91.7	61	71.0	0	2	248	0.00	29.840 
15:35	86.5	86.5	91.7	59	70.4	0	2	248	0.00	29.840 
15:40	87.0	87.0	92.3	58	70.4	1	3	270	0.00	29.840 
15:45	87.0	87.0	92.3	58	70.4	0	0	---	0.00	29.831 
15:50	86.5	86.5	92.1	60	70.9	0	0	---	0.00	29.831 
15:55	86.3	86.3	90.6	57	69.2	0	3	270	0.00	29.831 
16:00	86.7	86.7	91.7	58	70.1	0	2	270	0.00	29.827 
16:05	87.4	87.4	93.0	58	70.8	0	2	270	0.00	29.827 
16:10	87.2	87.2	92.3	57	70.1	1	3	270	0.00	29.827 
16:15	87.0	87.0	92.7	59	70.9	1	4	292	0.00	29.824 
16:20	87.2	87.2	92.3	57	70.1	1	2	292	0.00	29.824 
16:25	87.0	87.0	92.3	58	70.4	0	1	292	0.00	29.824 
16:30	87.0	87.0	91.5	56	69.4	0	3	315	0.00	29.818 
16:35	87.0	87.0	91.5	56	69.4	1	4	315	0.00	29.818 
16:40	87.0	87.0	92.3	58	70.4	1	4	270	0.00	29.818 
16:45	86.7	86.7	91.7	58	70.1	0	2	270	0.00	29.822 
16:50	86.3	86.3	90.9	58	69.7	0	1	270	0.00	29.822 
16:55	85.9	85.9	90.6	59	69.9	1	2	292	0.00	29.822 
17:00	85.5	85.5	90.2	60	70.0	1	2	292	0.00	29.824 
17:05	85.5	85.5	90.2	60	70.0	0	2	292	0.00	29.824 
17:10	85.3	85.3	89.8	60	69.8	1	3	292	0.00	29.824 
17:15	84.9	84.9	89.4	61	69.9	0	2	292	0.00	29.827 
17:20	84.9	84.9	89.7	62	70.4	1	2	315	0.00	29.827 
17:25	84.7	84.7	89.0	61	69.7	0	2	315	0.00	29.827 
17:30	84.7	84.7	89.0	61	69.7	1	3	315	0.00	29.827 
17:35	84.7	84.7	89.0	61	69.7	0	3	315	0.00	29.827 
17:40	84.7	84.7	88.4	59	68.8	0	2	315	0.00	29.827 
17:45	84.7	84.7	88.4	59	68.8	0	2	315	0.00	29.823 
17:50	84.7	84.7	88.4	59	68.8	0	2	315	0.00	29.823 
17:55	84.7	84.7	88.1	58	68.3	1	2	315	0.00	29.823 
18:00	84.7	84.7	88.4	59	68.8	0	1	315	0.00	29.822 
18:05	84.5	84.5	88.4	60	69.1	0	1	315	0.00	29.822 
18:10	84.5	84.5	88.1	59	68.6	0	2	315	0.00	29.822 
18:15	84.3	84.3	87.8	59	68.4	0	1	315	0.00	29.826 
18:20	84.1	84.1	87.7	60	68.7	0	2	315	0.00	29.826 
18:25	84.1	84.1	88.0	61	69.2	0	1	315	0.00	29.826 
18:30	84.0	84.0	88.1	62	69.5	0	1	315	0.00	29.829 
18:35	83.8	83.8	87.7	62	69.4	0	1	315	0.00	29.829 
18:40	83.8	83.8	88.0	63	69.8	0	1	315	0.00	29.829 
18:45	83.6	83.6	87.4	62	69.2	0	1	315	0.00	29.828 
18:50	83.6	83.6	87.4	62	69.2	0	1	315	0.00	29.828 
18:55	83.8	83.8	87.5	61	68.9	0	1	315	0.00	29.828 
19:00	83.8	83.8	87.5	61	68.9	0	1	315	0.00	29.826 
19:05	83.6	83.6	87.1	61	68.7	0	1	315	0.00	29.826 
19:10	83.4	83.4	87.0	62	69.0	0	1	315	0.00	29.826 
19:15	83.2	83.2	86.7	62	68.8	0	1	315	0.00	29.826 
19:20	83.2	83.2	86.9	63	69.3	0	1	315	0.00	29.826 
19:25	83.0	83.0	86.9	64	69.5	0	1	315	0.00	29.826 
19:30	83.0	83.0	87.1	65	70.0	0	1	315	0.00	29.827 
19:35	82.8	82.8	86.5	64	69.3	0	1	315	0.00	29.827 
19:40	82.6	82.6	86.4	65	69.6	0	1	315	0.00	29.827 
19:45	82.4	82.4	86.1	65	69.4	0	0	---	0.00	29.830 
19:50	82.4	82.4	86.3	66	69.9	0	0	---	0.00	29.830 
19:55	82.2	82.2	85.9	66	69.7	0	0	---	0.00	29.830 
20:00	82.2	82.2	86.1	67	70.1	0	1	315	0.00	29.832 
20:05	82.0	82.0	85.8	67	69.9	0	0	---	0.00	29.832 
20:10	82.0	82.0	85.8	67	69.9	0	0	---	0.00	29.832 
20:15	82.0	82.0	86.0	68	70.4	0	1	315	0.00	29.827 
20:20	81.8	81.8	85.7	68	70.2	0	0	---	0.00	29.827 
20:25	81.6	81.6	85.3	68	70.0	0	0	---	0.00	29.827 
20:30	81.4	81.4	85.1	69	70.2	0	0	---	0.00	29.828 
20:35	81.2	81.2	85.0	70	70.5	0	0	---	0.00	29.828 
20:40	81.1	81.1	84.8	70	70.4	0	0	---	0.00	29.828 
20:45	80.7	80.7	84.3	71	70.4	0	0	---	0.00	29.828 
20:50	80.3	80.3	83.6	71	70.0	0	0	---	0.00	29.828 
20:55	80.1	80.1	83.5	73	70.6	0	0	---	0.00	29.828 
21:00	79.8	79.8	83.0	73	70.4	0	0	---	0.00	29.829 
21:05	79.6	79.6	82.7	74	70.6	0	0	---	0.00	29.829 
21:10	79.2	79.2	82.1	75	70.6	0	0	---	0.00	29.829 
21:15	79.0	79.0	81.8	75	70.4	0	0	---	0.00	29.832 
21:20	78.6	78.6	81.2	76	70.4	0	0	---	0.00	29.832 
21:25	78.3	78.3	80.7	77	70.5	0	0	---	0.00	29.832 
21:30	78.1	78.1	80.4	78	70.7	0	0	---	0.00	29.839 
21:35	77.7	77.7	79.8	79	70.7	0	0	---	0.00	29.839 
21:40	77.6	77.6	79.6	80	70.9	0	0	---	0.00	29.839 
21:45	77.2	77.2	78.9	81	70.9	0	0	---	0.00	29.839 
21:50	76.8	76.8	78.2	81	70.5	0	0	---	0.00	29.839 
21:55	76.7	76.7	78.0	82	70.8	0	0	---	0.00	29.839 
22:00	76.5	76.5	77.6	83	70.9	0	0	---	0.00	29.846 
22:05	76.3	76.3	77.2	83	70.7	0	0	---	0.00	29.846 
22:10	76.1	76.1	76.8	84	70.9	0	0	---	0.00	29.846 
22:15	76.0	76.0	76.7	84	70.8	0	0	---	0.00	29.849 
22:20	75.6	75.6	75.9	85	70.8	0	0	---	0.00	29.849 
22:25	75.4	75.4	75.5	85	70.6	0	0	---	0.00	29.849 
22:30	75.3	75.3	75.2	86	70.8	0	0	---	0.00	29.853 
22:35	75.1	75.1	74.7	87	71.0	0	0	---	0.00	29.853 
22:40	74.9	74.9	74.9	87	70.8	0	0	---	0.00	29.853 
22:45	74.9	74.9	74.9	87	70.8	0	0	---	0.00	29.855 
22:50	74.7	74.7	74.7	88	70.9	0	0	---	0.00	29.855 
22:55	74.6	74.6	74.6	88	70.8	0	0	---	0.00	29.855 
23:00	74.6	74.6	74.6	88	70.8	0	0	---	0.00	29.855 
23:05	74.4	74.4	74.4	89	70.9	0	0	---	0.00	29.855 
23:10	74.2	74.2	74.2	89	70.7	0	0	---	0.00	29.855 
23:15	74.2	74.2	74.2	89	70.7	0	0	---	0.00	29.861 
23:20	74.0	74.0	74.0	90	70.9	0	0	---	0.00	29.861 
23:25	73.9	73.9	73.9	90	70.8	0	0	---	0.00	29.861 
23:30	73.9	73.9	73.9	90	70.8	0	0	---	0.00	29.863 
23:35	73.7	73.7	73.7	90	70.6	0	0	---	0.00	29.863 
23:40	73.7	73.7	73.7	90	70.6	0	0	---	0.00	29.863 
23:45	73.5	73.5	73.5	91	70.7	0	0	---	0.00	29.868 
23:50	73.5	73.5	73.5	91	70.7	0	0	---	0.00	29.868 
23:55	73.3	73.3	73.3	91	70.5	0	0	---	0.00	29.868 

CoCoRaHS
IN-AL-39
A2 Web Hosting
Creative Commons License
GoDaddy
search engine by freefind advanced

loaded 2018-11-16 10:40:32 • last modified 2010-11-18 10:43:29
Privacy PolicyDisclaimer
• wx.awcolley.com is powered by PmWiki v.2002016 •
• all content (unless otherwise noted) © 2018 A W Colley